Time;durP1;ratioP1;P1;durP2;ratioP2;P2;SDS_P1;SDS_P2;PMS_P1;PMS_P2;Temp;Humidity;BMP_temperature;BMP_pressure;BME280_temperature;BME280_humidity;BME280_pressure;Samples;Min_cycle;Max_cycle;Signal;HPM_P1;HPM_P2
2022/08/27 00:00:47;;;;;;;1.45;1.45;;;;;;;;;;5132618;27;20223;-62
2022/08/27 00:03:35;;;;;;;1.83;1.75;;;;;;;;;;5135731;27;20250;-62
2022/08/27 00:06:22;;;;;;;1.80;1.70;;;;;;;;;;5140016;27;20228;-62
2022/08/27 00:09:09;;;;;;;1.73;1.73;;;;;;;;;;5131680;27;20223;-62
2022/08/27 00:11:58;;;;;;;1.75;1.65;;;;;;;;;;5129098;27;20203;-62
2022/08/27 00:14:45;;;;;;;1.92;1.83;;;;;;;;;;5134113;27;20218;-62
2022/08/27 00:17:33;;;;;;;2.00;1.90;;;;;;;;;;5140316;27;20230;-62
2022/08/27 00:20:24;;;;;;;1.65;1.65;;;;;;;;;;5130994;27;20207;-62
2022/08/27 00:23:11;;;;;;;1.65;1.55;;;;;;;;;;5139574;27;20279;-62
2022/08/27 00:25:59;;;;;;;1.90;1.80;;;;;;;;;;5131152;27;20670;-62
2022/08/27 00:28:47;;;;;;;1.90;1.80;;;;;;;;;;5141107;27;20206;-62
2022/08/27 00:31:35;;;;;;;1.75;1.67;;;;;;;;;;5129740;27;20240;-62
2022/08/27 00:34:23;;;;;;;2.00;1.90;;;;;;;;;;5136979;27;20276;-62
2022/08/27 00:37:10;;;;;;;1.42;1.42;;;;;;;;;;5138375;27;20355;-62
2022/08/27 00:39:57;;;;;;;1.73;1.70;;;;;;;;;;5135908;27;20191;-62
2022/08/27 00:42:44;;;;;;;1.83;1.75;;;;;;;;;;5128819;27;20205;-62
2022/08/27 00:45:37;;;;;;;2.08;1.98;;;;;;;;;;5127738;27;20393;-62
2022/08/27 00:48:27;;;;;;;1.92;1.83;;;;;;;;;;5135757;27;20335;-62
2022/08/27 00:51:15;;;;;;;1.65;1.65;;;;;;;;;;5131236;27;20339;-62
2022/08/27 00:54:03;;;;;;;1.90;1.80;;;;;;;;;;5130121;27;20199;-62
2022/08/27 00:56:50;;;;;;;2.20;2.10;;;;;;;;;;5125336;27;20252;-63
2022/08/27 00:59:38;;;;;;;1.88;1.77;;;;;;;;;;5140103;27;20218;-62
2022/08/27 01:02:29;;;;;;;1.90;1.80;;;;;;;;;;5130687;27;20213;-59
2022/08/27 01:05:20;;;;;;;1.83;1.73;;;;;;;;;;5133165;27;20230;-59
2022/08/27 01:08:10;;;;;;;2.08;1.98;;;;;;;;;;5129450;27;20230;-60
2022/08/27 01:10:59;;;;;;;1.83;1.73;;;;;;;;;;5139210;27;20335;-59
2022/08/27 01:13:46;;;;;;;2.10;1.70;;;;;;;;;;5130239;27;20222;-59
2022/08/27 01:16:38;;;;;;;1.63;1.53;;;;;;;;;;5129288;27;20213;-59
2022/08/27 01:19:32;;;;;;;2.25;2.03;;;;;;;;;;5133958;27;20204;-59
2022/08/27 01:22:29;;;;;;;2.00;1.90;;;;;;;;;;5138613;27;20275;-59
2022/08/27 01:25:18;;;;;;;2.03;1.93;;;;;;;;;;5130753;27;20203;-59
2022/08/27 01:28:06;;;;;;;1.85;1.75;;;;;;;;;;5142575;27;20245;-59
2022/08/27 01:30:53;;;;;;;1.83;1.77;;;;;;;;;;5131363;27;20203;-59
2022/08/27 01:33:52;;;;;;;1.80;1.70;;;;;;;;;;5135077;27;20310;-59
2022/08/27 01:36:40;;;;;;;1.70;1.60;;;;;;;;;;5129117;27;20212;-59
2022/08/27 01:39:27;;;;;;;2.00;1.80;;;;;;;;;;5133917;27;20787;-60
2022/08/27 01:42:19;;;;;;;1.63;1.52;;;;;;;;;;5129093;28;20215;-59
2022/08/27 01:45:09;;;;;;;1.70;1.70;;;;;;;;;;5137647;27;20233;-59
2022/08/27 01:47:57;;;;;;;1.87;1.87;;;;;;;;;;5130796;27;20195;-59
2022/08/27 01:50:44;;;;;;;1.85;1.75;;;;;;;;;;5134886;27;20212;-59
2022/08/27 01:53:31;;;;;;;1.95;1.85;;;;;;;;;;5135431;27;20205;-59
2022/08/27 01:56:18;;;;;;;2.20;2.07;;;;;;;;;;5134459;27;20570;-59
2022/08/27 01:59:07;;;;;;;1.80;1.70;;;;;;;;;;5129238;27;20359;-59
2022/08/27 02:01:54;;;;;;;1.77;1.70;;;;;;;;;;5126644;27;20260;-59
2022/08/27 02:04:41;;;;;;;2.03;1.97;;;;;;;;;;5128431;28;20215;-59
2022/08/27 02:07:28;;;;;;;1.85;1.75;;;;;;;;;;5129863;27;20774;-59
2022/08/27 02:10:19;;;;;;;2.03;1.93;;;;;;;;;;5143561;27;20197;-58
2022/08/27 02:13:07;;;;;;;2.03;1.90;;;;;;;;;;5132115;27;20286;-59
2022/08/27 02:15:55;;;;;;;1.60;1.60;;;;;;;;;;5133245;27;20444;-59
2022/08/27 02:18:42;;;;;;;1.70;1.60;;;;;;;;;;5132868;27;20215;-59
2022/08/27 02:21:29;;;;;;;1.83;1.77;;;;;;;;;;5143566;27;20285;-59
2022/08/27 02:24:16;;;;;;;1.90;1.80;;;;;;;;;;5138631;27;20203;-59
2022/08/27 02:27:03;;;;;;;1.70;1.70;;;;;;;;;;5145209;27;20206;-59
2022/08/27 02:29:50;;;;;;;1.90;1.90;;;;;;;;;;5132246;27;20210;-59
2022/08/27 02:32:39;;;;;;;1.60;1.60;;;;;;;;;;5136156;27;20218;-59
2022/08/27 02:35:26;;;;;;;1.77;1.77;;;;;;;;;;5133503;27;20283;-59
2022/08/27 02:38:13;;;;;;;1.93;1.83;;;;;;;;;;5141966;27;20309;-59
2022/08/27 02:41:00;;;;;;;1.60;1.60;;;;;;;;;;5132919;27;20223;-59
2022/08/27 02:43:47;;;;;;;1.88;1.77;;;;;;;;;;5141997;27;20217;-59
2022/08/27 02:46:35;;;;;;;1.60;1.60;;;;;;;;;;5136466;27;20208;-59
2022/08/27 02:49:23;;;;;;;2.00;1.90;;;;;;;;;;5143959;27;20266;-59
2022/08/27 02:52:10;;;;;;;1.93;1.83;;;;;;;;;;5132389;27;20618;-59
2022/08/27 02:54:57;;;;;;;2.03;1.93;;;;;;;;;;5131884;27;20670;-59
2022/08/27 02:57:45;;;;;;;1.80;1.80;;;;;;;;;;5136998;27;20601;-59
2022/08/27 03:00:32;;;;;;;2.10;2.00;;;;;;;;;;5135312;27;20208;-59
2022/08/27 03:03:19;;;;;;;2.00;1.90;;;;;;;;;;5135019;27;20210;-59
2022/08/27 03:06:08;;;;;;;1.67;1.63;;;;;;;;;;5130109;27;20703;-60
2022/08/27 03:08:54;;;;;;;1.53;1.43;;;;;;;;;;5138168;27;20202;-59
2022/08/27 03:11:42;;;;;;;1.70;1.60;;;;;;;;;;5132445;27;20218;-59
2022/08/27 03:14:30;;;;;;;2.00;1.90;;;;;;;;;;5137553;27;20198;-59
2022/08/27 03:20:21;;;;;;;1.60;1.60;;;;;;;;;;5141671;27;20229;-59
2022/08/27 03:23:11;;;;;;;1.90;1.80;;;;;;;;;;5138806;27;20215;-59
2022/08/27 03:26:00;;;;;;;1.80;1.80;;;;;;;;;;5140647;27;20306;-59
2022/08/27 03:28:47;;;;;;;1.30;1.30;;;;;;;;;;5130839;27;20675;-59
2022/08/27 03:31:34;;;;;;;1.67;1.67;;;;;;;;;;5142348;27;20233;-59
2022/08/27 03:34:21;;;;;;;2.10;2.00;;;;;;;;;;5132388;27;20210;-59
2022/08/27 03:37:08;;;;;;;1.50;1.50;;;;;;;;;;5136393;27;20295;-58
2022/08/27 03:39:56;;;;;;;1.80;1.70;;;;;;;;;;5134727;27;20238;-59
2022/08/27 03:42:43;;;;;;;1.57;1.57;;;;;;;;;;5143102;27;20232;-59
2022/08/27 03:45:30;;;;;;;1.50;1.50;;;;;;;;;;5135157;27;20696;-59
2022/08/27 03:48:18;;;;;;;1.40;1.40;;;;;;;;;;5132077;27;20204;-59
2022/08/27 03:51:06;;;;;;;1.47;1.47;;;;;;;;;;5134825;27;20198;-59
2022/08/27 03:53:54;;;;;;;1.87;1.77;;;;;;;;;;5139145;27;20218;-58
2022/08/27 03:56:42;;;;;;;1.77;1.73;;;;;;;;;;5134175;27;20203;-59
2022/08/27 03:59:29;;;;;;;1.43;1.43;;;;;;;;;;5130498;27;20778;-59
2022/08/27 04:02:16;;;;;;;1.80;1.70;;;;;;;;;;5134976;27;20204;-59
2022/08/27 04:05:03;;;;;;;1.60;1.50;;;;;;;;;;5140958;27;20210;-59
2022/08/27 04:07:50;;;;;;;1.47;1.47;;;;;;;;;;5134511;27;20316;-59
2022/08/27 04:10:39;;;;;;;1.50;1.50;;;;;;;;;;5132977;27;20265;-59
2022/08/27 04:13:27;;;;;;;1.73;1.63;;;;;;;;;;5137540;27;20238;-59
2022/08/27 04:16:14;;;;;;;1.73;1.67;;;;;;;;;;5128513;27;20217;-59
2022/08/27 04:19:01;;;;;;;1.90;1.80;;;;;;;;;;5133159;27;20303;-59
2022/08/27 04:21:49;;;;;;;1.50;1.40;;;;;;;;;;5138072;27;20222;-59
2022/08/27 04:24:37;;;;;;;1.60;1.60;;;;;;;;;;5136899;27;20223;-59
2022/08/27 04:27:25;;;;;;;1.63;1.63;;;;;;;;;;5142040;27;20713;-59
2022/08/27 04:30:15;;;;;;;2.10;2.00;;;;;;;;;;5131068;27;20204;-59
2022/08/27 04:33:03;;;;;;;1.90;1.80;;;;;;;;;;5139484;27;20632;-59
2022/08/27 04:35:57;;;;;;;1.60;1.60;;;;;;;;;;5138393;27;20202;-60
2022/08/27 04:38:44;;;;;;;1.70;1.70;;;;;;;;;;5132215;27;20274;-59
2022/08/27 04:41:32;;;;;;;1.77;1.67;;;;;;;;;;5129820;27;20210;-59
2022/08/27 04:44:19;;;;;;;1.30;1.30;;;;;;;;;;5127011;27;20207;-59
2022/08/27 04:47:07;;;;;;;1.70;1.70;;;;;;;;;;5135769;27;20208;-59
2022/08/27 04:49:54;;;;;;;1.80;1.70;;;;;;;;;;5132993;27;20204;-59
2022/08/27 04:52:41;;;;;;;1.70;1.70;;;;;;;;;;5131910;27;20194;-59
2022/08/27 04:55:28;;;;;;;1.80;1.70;;;;;;;;;;5130093;27;20207;-59
2022/08/27 04:58:15;;;;;;;1.37;1.37;;;;;;;;;;5142078;27;20225;-59
2022/08/27 05:01:02;;;;;;;1.50;1.50;;;;;;;;;;5131132;27;20251;-59
2022/08/27 05:03:51;;;;;;;1.60;1.60;;;;;;;;;;5135070;27;20613;-59
2022/08/27 05:06:38;;;;;;;1.37;1.37;;;;;;;;;;5127545;27;20303;-59
2022/08/27 05:09:25;;;;;;;1.67;1.58;;;;;;;;;;5133906;27;20560;-58
2022/08/27 05:12:12;;;;;;;1.50;1.50;;;;;;;;;;5127802;27;20219;-59
2022/08/27 05:14:59;;;;;;;1.30;1.30;;;;;;;;;;5134902;27;20216;-59
2022/08/27 05:17:46;;;;;;;1.53;1.50;;;;;;;;;;5135103;27;20561;-59
2022/08/27 05:20:43;;;;;;;1.53;1.43;;;;;;;;;;5140568;27;20262;-59
2022/08/27 05:23:30;;;;;;;1.60;1.60;;;;;;;;;;5129400;28;20206;-59
2022/08/27 05:26:17;;;;;;;1.50;1.50;;;;;;;;;;5136629;27;20685;-59
2022/08/27 05:29:05;;;;;;;1.43;1.43;;;;;;;;;;5130122;28;20604;-59
2022/08/27 05:31:52;;;;;;;1.50;1.50;;;;;;;;;;5139332;27;20319;-59
2022/08/27 05:34:38;;;;;;;1.50;1.50;;;;;;;;;;5129152;28;20559;-59
2022/08/27 05:37:27;;;;;;;1.20;1.20;;;;;;;;;;5130400;27;20210;-59
2022/08/27 05:40:14;;;;;;;1.50;1.50;;;;;;;;;;5132932;27;20234;-59
2022/08/27 05:43:01;;;;;;;1.52;1.52;;;;;;;;;;5140871;27;20202;-59
2022/08/27 05:45:49;;;;;;;1.60;1.60;;;;;;;;;;5133470;27;20217;-59
2022/08/27 05:48:36;;;;;;;1.42;1.42;;;;;;;;;;5141954;27;20223;-59
2022/08/27 05:51:27;;;;;;;1.67;1.67;;;;;;;;;;5138513;27;20287;-59
2022/08/27 05:54:17;;;;;;;1.80;1.50;;;;;;;;;;5137946;27;20199;-59
2022/08/27 05:57:05;;;;;;;1.52;1.52;;;;;;;;;;5141651;27;20259;-59
2022/08/27 06:02:56;;;;;;;1.42;1.42;;;;;;;;;;5135548;27;20696;-59
2022/08/27 06:05:43;;;;;;;1.63;1.58;;;;;;;;;;5131462;27;20614;-59
2022/08/27 06:08:31;;;;;;;1.50;1.40;;;;;;;;;;5142585;27;20645;-59
2022/08/27 06:11:19;;;;;;;1.42;1.42;;;;;;;;;;5133397;27;20681;-59
2022/08/27 06:14:07;;;;;;;1.53;1.53;;;;;;;;;;5142463;27;20261;-59
2022/08/27 06:16:54;;;;;;;1.77;1.50;;;;;;;;;;5130711;27;20235;-59
2022/08/27 06:19:42;;;;;;;1.60;1.60;;;;;;;;;;5140187;27;20265;-59
2022/08/27 06:22:29;;;;;;;1.67;1.58;;;;;;;;;;5133599;27;20199;-59
2022/08/27 06:25:16;;;;;;;1.57;1.57;;;;;;;;;;5137401;27;20288;-59
2022/08/27 06:28:04;;;;;;;1.52;1.52;;;;;;;;;;5132602;27;20229;-59
2022/08/27 06:30:51;;;;;;;1.42;1.42;;;;;;;;;;5146169;27;20226;-59
2022/08/27 06:33:39;;;;;;;1.77;1.67;;;;;;;;;;5132518;27;20199;-59
2022/08/27 06:36:28;;;;;;;1.80;1.80;;;;;;;;;;5130550;27;20366;-59
2022/08/27 06:39:15;;;;;;;1.70;1.60;;;;;;;;;;5131777;27;20228;-59
2022/08/27 06:42:02;;;;;;;1.70;1.70;;;;;;;;;;5138482;27;20333;-59
2022/08/27 06:44:52;;;;;;;1.80;1.70;;;;;;;;;;5132064;27;20430;-60
2022/08/27 06:47:39;;;;;;;1.90;1.90;;;;;;;;;;5135128;27;20350;-58
2022/08/27 06:50:26;;;;;;;1.67;1.67;;;;;;;;;;5136282;27;20567;-60
2022/08/27 06:53:13;;;;;;;1.95;1.90;;;;;;;;;;5143835;27;20230;-59
2022/08/27 06:56:00;;;;;;;1.70;1.70;;;;;;;;;;5137166;27;20223;-59
2022/08/27 06:58:48;;;;;;;1.60;1.60;;;;;;;;;;5134346;27;20232;-59
2022/08/27 07:01:39;;;;;;;1.52;1.52;;;;;;;;;;5132317;27;20245;-59
2022/08/27 07:04:26;;;;;;;1.50;1.50;;;;;;;;;;5140168;27;20578;-60
2022/08/27 07:07:13;;;;;;;1.52;1.50;;;;;;;;;;5131528;27;20289;-59
2022/08/27 07:10:00;;;;;;;1.77;1.67;;;;;;;;;;5130839;27;20689;-59
2022/08/27 07:12:47;;;;;;;1.83;1.73;;;;;;;;;;5137815;27;20211;-59
2022/08/27 07:15:37;;;;;;;1.88;1.88;;;;;;;;;;5136669;27;20565;-59
2022/08/27 07:18:26;;;;;;;1.88;1.88;;;;;;;;;;5139388;27;20237;-60
2022/08/27 07:21:13;;;;;;;2.00;1.90;;;;;;;;;;5137306;27;20203;-59
2022/08/27 07:24:03;;;;;;;1.75;1.75;;;;;;;;;;5136161;27;20685;-59
2022/08/27 07:26:50;;;;;;;1.73;1.73;;;;;;;;;;5138291;27;20210;-59
2022/08/27 07:29:37;;;;;;;1.60;1.60;;;;;;;;;;5136213;27;20203;-59
2022/08/27 07:32:24;;;;;;;1.92;1.92;;;;;;;;;;5135940;27;20206;-62
2022/08/27 07:35:13;;;;;;;1.67;1.67;;;;;;;;;;5136436;27;20656;-59
2022/08/27 07:38:00;;;;;;;1.80;1.80;;;;;;;;;;5131100;27;20205;-59
2022/08/27 07:40:47;;;;;;;1.73;1.73;;;;;;;;;;5135363;27;20361;-59
2022/08/27 07:46:38;;;;;;;1.90;1.90;;;;;;;;;;5132687;27;20226;-59
2022/08/27 07:49:27;;;;;;;1.98;1.88;;;;;;;;;;5136321;27;20303;-59
2022/08/27 07:52:16;;;;;;;1.88;1.88;;;;;;;;;;5135211;27;20672;-59
2022/08/27 07:55:03;;;;;;;2.03;1.92;;;;;;;;;;5137453;27;20256;-59
2022/08/27 07:57:51;;;;;;;1.90;1.90;;;;;;;;;;5130587;27;20677;-59
2022/08/27 08:00:41;;;;;;;2.00;1.90;;;;;;;;;;5130851;27;20687;-59
2022/08/27 08:03:28;;;;;;;1.70;1.70;;;;;;;;;;5141486;27;20207;-59
2022/08/27 08:06:16;;;;;;;2.30;1.80;;;;;;;;;;5129897;27;20212;-59
2022/08/27 08:09:06;;;;;;;1.77;1.67;;;;;;;;;;5137968;27;20584;-59
2022/08/27 08:11:53;;;;;;;2.13;2.03;;;;;;;;;;5137652;27;20204;-59
2022/08/27 08:14:40;;;;;;;1.90;1.90;;;;;;;;;;5130521;27;20209;-59
2022/08/27 08:17:27;;;;;;;1.80;1.73;;;;;;;;;;5132661;27;20691;-59
2022/08/27 08:20:16;;;;;;;1.70;1.70;;;;;;;;;;5132989;27;20237;-60
2022/08/27 08:23:03;;;;;;;1.85;1.75;;;;;;;;;;5134483;27;20213;-59
2022/08/27 08:25:51;;;;;;;1.90;1.80;;;;;;;;;;5132166;27;20366;-59
2022/08/27 08:28:39;;;;;;;2.10;2.00;;;;;;;;;;5130761;27;20214;-59
2022/08/27 08:31:27;;;;;;;2.15;2.10;;;;;;;;;;5136125;27;20741;-59
2022/08/27 08:34:14;;;;;;;1.80;1.70;;;;;;;;;;5136219;27;20589;-59
2022/08/27 08:37:01;;;;;;;1.80;1.80;;;;;;;;;;5132511;27;20208;-59
2022/08/27 08:39:48;;;;;;;1.95;1.85;;;;;;;;;;5139771;27;20586;-59
2022/08/27 08:42:44;;;;;;;1.95;1.85;;;;;;;;;;5129634;27;20778;-59
2022/08/27 08:45:34;;;;;;;2.00;1.90;;;;;;;;;;5139418;27;20343;-59
2022/08/27 08:48:25;;;;;;;2.00;1.90;;;;;;;;;;5132179;27;20286;-59
2022/08/27 08:51:19;;;;;;;2.20;2.10;;;;;;;;;;5128403;27;20204;-59
2022/08/27 08:54:09;;;;;;;1.95;1.85;;;;;;;;;;5130293;27;20228;-58
2022/08/27 08:57:01;;;;;;;1.85;1.80;;;;;;;;;;5135511;27;20208;-59
2022/08/27 08:59:56;;;;;;;2.30;2.03;;;;;;;;;;5134694;27;20230;-59
2022/08/27 09:02:49;;;;;;;1.80;1.70;;;;;;;;;;5138342;27;20212;-59
2022/08/27 09:05:39;;;;;;;2.20;2.10;;;;;;;;;;5129153;27;20227;-59
2022/08/27 09:08:32;;;;;;;1.73;1.73;;;;;;;;;;5139074;27;20323;-59
2022/08/27 09:11:27;;;;;;;2.22;2.13;;;;;;;;;;5129753;27;20238;-58
2022/08/27 09:14:23;;;;;;;1.98;1.88;;;;;;;;;;5136756;27;20206;-59
2022/08/27 09:17:12;;;;;;;1.70;1.60;;;;;;;;;;5139236;27;20203;-59
2022/08/27 09:19:59;;;;;;;1.90;1.80;;;;;;;;;;5135166;27;20234;-59
2022/08/27 09:22:53;;;;;;;2.03;1.90;;;;;;;;;;5131787;27;20208;-59
2022/08/27 09:25:42;;;;;;;2.03;1.92;;;;;;;;;;5123473;27;20215;-59
2022/08/27 09:31:39;;;;;;;2.05;1.95;;;;;;;;;;5132557;27;20632;-58
2022/08/27 09:34:35;;;;;;;2.45;2.13;;;;;;;;;;5132734;27;20574;-59
2022/08/27 09:37:25;;;;;;;2.30;2.20;;;;;;;;;;5130279;27;20211;-59
2022/08/27 09:40:19;;;;;;;2.33;2.22;;;;;;;;;;5128427;28;20273;-60
2022/08/27 09:43:09;;;;;;;2.45;2.30;;;;;;;;;;5129489;28;20296;-59
2022/08/27 09:45:58;;;;;;;2.05;1.95;;;;;;;;;;5143128;27;20267;-59
2022/08/27 09:48:45;;;;;;;2.10;2.00;;;;;;;;;;5129575;27;20212;-59
2022/08/27 09:51:34;;;;;;;2.20;2.10;;;;;;;;;;5134087;27;20198;-59
2022/08/27 09:54:37;;;;;;;2.28;2.17;;;;;;;;;;5129746;27;20216;-59
2022/08/27 09:57:33;;;;;;;2.38;2.28;;;;;;;;;;5133662;27;20217;-59
2022/08/27 10:00:32;;;;;;;2.10;2.00;;;;;;;;;;5135952;27;20237;-59
2022/08/27 10:03:21;;;;;;;2.30;2.20;;;;;;;;;;5139329;27;20573;-58
2022/08/27 10:06:09;;;;;;;2.47;2.28;;;;;;;;;;5130954;27;20295;-59
2022/08/27 10:09:02;;;;;;;2.17;2.08;;;;;;;;;;5080437;28;20682;-58
2022/08/27 10:11:57;;;;;;;2.22;2.13;;;;;;;;;;5074767;28;20586;-59
2022/08/27 10:14:49;;;;;;;2.40;2.20;;;;;;;;;;5079699;28;20216;-59
2022/08/27 10:17:45;;;;;;;2.20;2.10;;;;;;;;;;5073837;28;20738;-59
2022/08/27 10:20:41;;;;;;;2.38;2.28;;;;;;;;;;5077726;28;20310;-59
2022/08/27 10:23:35;;;;;;;2.60;2.50;;;;;;;;;;5080972;28;20284;-59
2022/08/27 10:26:27;;;;;;;2.30;2.20;;;;;;;;;;5084285;28;20285;-59
2022/08/27 10:29:21;;;;;;;2.40;2.30;;;;;;;;;;5082315;28;20573;-60
2022/08/27 10:32:20;;;;;;;2.20;2.10;;;;;;;;;;5087650;28;20676;-60
2022/08/27 10:35:11;;;;;;;2.25;2.15;;;;;;;;;;5085493;28;20739;-59
2022/08/27 10:38:08;;;;;;;2.28;2.17;;;;;;;;;;5085135;28;20292;-59
2022/08/27 10:41:01;;;;;;;2.47;2.38;;;;;;;;;;5086212;28;20338;-60
2022/08/27 10:44:08;;;;;;;2.47;2.38;;;;;;;;;;5082432;28;20217;-60
2022/08/27 10:47:13;;;;;;;2.38;2.28;;;;;;;;;;5078154;28;20667;-60
2022/08/27 10:50:05;;;;;;;2.30;2.20;;;;;;;;;;5079788;28;20305;-59
2022/08/27 10:52:58;;;;;;;2.22;2.13;;;;;;;;;;5084873;28;20238;-59
2022/08/27 10:55:50;;;;;;;2.10;2.00;;;;;;;;;;5083436;28;20215;-59
2022/08/27 10:58:51;;;;;;;2.50;2.30;;;;;;;;;;5086079;28;20206;-60
2022/08/27 11:01:49;;;;;;;2.10;2.00;;;;;;;;;;5083581;28;20231;-60
2022/08/27 11:04:42;;;;;;;2.20;2.00;;;;;;;;;;5083069;28;20246;-60
2022/08/27 11:07:33;;;;;;;2.20;2.10;;;;;;;;;;5106342;27;20236;-59
2022/08/27 11:10:26;;;;;;;2.20;2.10;;;;;;;;;;5134799;27;20194;-60
2022/08/27 11:13:18;;;;;;;2.13;2.03;;;;;;;;;;5133856;27;20236;-60
2022/08/27 11:16:11;;;;;;;2.50;2.30;;;;;;;;;;5133112;27;20301;-59
2022/08/27 11:19:06;;;;;;;2.13;2.03;;;;;;;;;;5131826;27;20218;-60
2022/08/27 11:22:04;;;;;;;2.28;2.10;;;;;;;;;;5131667;27;20217;-60
2022/08/27 11:24:55;;;;;;;2.40;2.30;;;;;;;;;;5130498;27;20220;-61
2022/08/27 11:27:43;;;;;;;2.20;2.10;;;;;;;;;;5131379;27;20205;-60
2022/08/27 11:30:40;;;;;;;2.40;2.22;;;;;;;;;;5130267;27;20205;-60
2022/08/27 11:33:33;;;;;;;2.20;2.10;;;;;;;;;;5132194;27;20250;-60
2022/08/27 11:36:49;;;;;;;2.35;2.25;;;;;;;;;;5130454;27;20205;-59
2022/08/27 11:39:55;;;;;;;2.13;2.03;;;;;;;;;;5132513;27;20693;-60
2022/08/27 11:42:45;;;;;;;2.40;2.30;;;;;;;;;;5129853;27;20215;-59
2022/08/27 11:45:37;;;;;;;2.13;2.03;;;;;;;;;;5134770;27;20197;-59
2022/08/27 11:48:26;;;;;;;2.30;2.20;;;;;;;;;;5131460;27;20211;-60
2022/08/27 11:51:31;;;;;;;2.22;2.13;;;;;;;;;;5135487;27;20205;-60
2022/08/27 11:54:26;;;;;;;2.33;2.22;;;;;;;;;;5133155;27;20284;-60
2022/08/27 11:57:15;;;;;;;2.15;2.05;;;;;;;;;;5132348;27;20205;-60
2022/08/27 12:00:16;;;;;;;2.10;2.00;;;;;;;;;;5135754;27;20195;-60
2022/08/27 12:03:07;;;;;;;2.28;2.17;;;;;;;;;;5131869;27;20731;-60
2022/08/27 12:06:25;;;;;;;2.15;2.05;;;;;;;;;;5134554;27;20233;-59
2022/08/27 12:09:18;;;;;;;2.38;2.28;;;;;;;;;;5026245;28;20237;-60
2022/08/27 12:12:16;;;;;;;2.33;2.22;;;;;;;;;;5132520;27;20193;-59
2022/08/27 12:15:08;;;;;;;2.30;2.20;;;;;;;;;;5133287;27;20216;-60
2022/08/27 12:18:07;;;;;;;2.53;2.42;;;;;;;;;;5130841;27;20209;-60
2022/08/27 12:21:02;;;;;;;2.20;2.10;;;;;;;;;;5130535;27;20750;-59
2022/08/27 12:24:07;;;;;;;2.13;1.92;;;;;;;;;;5130321;27;20205;-60
2022/08/27 12:26:57;;;;;;;2.17;2.08;;;;;;;;;;5133021;27;20235;-60
2022/08/27 12:29:49;;;;;;;2.20;2.10;;;;;;;;;;5137739;27;20219;-59
2022/08/27 12:32:39;;;;;;;2.17;2.08;;;;;;;;;;5134653;27;20218;-59
2022/08/27 12:35:32;;;;;;;2.40;2.30;;;;;;;;;;5127266;27;20202;-60
2022/08/27 12:38:27;;;;;;;2.20;2.10;;;;;;;;;;5133091;27;20671;-59
2022/08/27 12:41:24;;;;;;;2.40;2.30;;;;;;;;;;5132668;27;20232;-59
2022/08/27 12:44:15;;;;;;;2.25;2.10;;;;;;;;;;5138254;27;20621;-59
2022/08/27 12:47:07;;;;;;;2.40;2.22;;;;;;;;;;5128266;27;20201;-60
2022/08/27 12:49:58;;;;;;;2.28;2.17;;;;;;;;;;5139587;27;20204;-60
2022/08/27 12:53:02;;;;;;;2.35;2.25;;;;;;;;;;5130600;27;20200;-59
2022/08/27 12:56:00;;;;;;;2.17;2.08;;;;;;;;;;5140100;27;20675;-60
2022/08/27 12:58:54;;;;;;;2.42;2.33;;;;;;;;;;5130965;27;20344;-60
2022/08/27 13:01:55;;;;;;;2.20;2.10;;;;;;;;;;5133712;27;20251;-59
2022/08/27 13:04:45;;;;;;;2.58;2.47;;;;;;;;;;5131071;27;20211;-59
2022/08/27 13:07:38;;;;;;;2.63;2.53;;;;;;;;;;5137970;27;20242;-59
2022/08/27 13:10:29;;;;;;;2.40;2.30;;;;;;;;;;5138426;27;20211;-60
2022/08/27 13:13:20;;;;;;;2.20;2.10;;;;;;;;;;5135781;27;20628;-59
2022/08/27 13:16:07;;;;;;;2.13;2.03;;;;;;;;;;5136463;27;20682;-60
2022/08/27 13:18:54;;;;;;;2.83;2.63;;;;;;;;;;5131214;27;20208;-60
2022/08/27 13:21:49;;;;;;;2.42;2.33;;;;;;;;;;5134308;27;20650;-59
2022/08/27 13:24:46;;;;;;;2.35;2.25;;;;;;;;;;5128275;27;20205;-59
2022/08/27 13:27:36;;;;;;;2.08;1.98;;;;;;;;;;5141051;27;20574;-59
2022/08/27 13:30:23;;;;;;;2.10;2.00;;;;;;;;;;5130557;28;20237;-59
2022/08/27 13:33:16;;;;;;;2.13;2.08;;;;;;;;;;5137352;27;20205;-59
2022/08/27 13:36:05;;;;;;;2.40;2.30;;;;;;;;;;5129501;28;20201;-60
2022/08/27 13:38:53;;;;;;;2.40;2.22;;;;;;;;;;5139328;27;20205;-59
2022/08/27 13:41:41;;;;;;;2.58;2.45;;;;;;;;;;5129550;28;20688;-59
2022/08/27 13:44:33;;;;;;;2.50;2.30;;;;;;;;;;5139516;27;20266;-59
2022/08/27 13:47:23;;;;;;;2.30;2.20;;;;;;;;;;5128589;28;20240;-60
2022/08/27 13:50:14;;;;;;;2.40;2.30;;;;;;;;;;5131457;27;20697;-59
2022/08/27 13:56:11;;;;;;;2.28;2.17;;;;;;;;;;5136794;27;20192;-60
2022/08/27 13:59:08;;;;;;;2.47;2.38;;;;;;;;;;5129743;27;20205;-59
2022/08/27 14:01:56;;;;;;;2.65;2.45;;;;;;;;;;5128606;27;20231;-59
2022/08/27 14:04:46;;;;;;;2.72;2.53;;;;;;;;;;5134015;27;20220;-59
2022/08/27 14:07:36;;;;;;;2.60;2.50;;;;;;;;;;5137223;27;20235;-59
2022/08/27 14:10:31;;;;;;;2.42;2.33;;;;;;;;;;5139965;27;20666;-59
2022/08/27 14:13:23;;;;;;;2.35;2.25;;;;;;;;;;5135614;27;20205;-59
2022/08/27 14:16:22;;;;;;;2.55;2.45;;;;;;;;;;5136217;27;20318;-60
2022/08/27 14:19:11;;;;;;;2.33;2.22;;;;;;;;;;5133683;27;20197;-59
2022/08/27 14:21:59;;;;;;;2.50;2.40;;;;;;;;;;5130897;27;20229;-59
2022/08/27 14:24:46;;;;;;;2.92;2.72;;;;;;;;;;5134267;27;20204;-59
2022/08/27 14:27:35;;;;;;;2.20;2.10;;;;;;;;;;5143254;27;20201;-59
2022/08/27 14:30:25;;;;;;;2.30;2.20;;;;;;;;;;5134429;27;20209;-59
2022/08/27 14:33:12;;;;;;;2.25;2.15;;;;;;;;;;5143926;27;20195;-60
2022/08/27 14:35:59;;;;;;;2.35;2.25;;;;;;;;;;5135036;27;20216;-60
2022/08/27 14:38:48;;;;;;;2.55;2.45;;;;;;;;;;5138516;27;20215;-59
2022/08/27 14:41:35;;;;;;;2.25;2.17;;;;;;;;;;5134620;27;20224;-59
2022/08/27 14:44:22;;;;;;;2.67;2.50;;;;;;;;;;5136573;27;20217;-60
2022/08/27 14:47:12;;;;;;;1.92;1.90;;;;;;;;;;5138200;27;20328;-59
2022/08/27 14:49:59;;;;;;;2.38;2.28;;;;;;;;;;5132099;27;20257;-60
2022/08/27 14:52:46;;;;;;;2.40;2.30;;;;;;;;;;5133057;27;20661;-59
2022/08/27 14:55:33;;;;;;;2.40;2.30;;;;;;;;;;5139893;27;20205;-59
2022/08/27 14:58:20;;;;;;;2.30;2.20;;;;;;;;;;5132205;27;20574;-59
2022/08/27 15:01:07;;;;;;;2.47;2.38;;;;;;;;;;5130243;27;20231;-59
2022/08/27 15:03:57;;;;;;;2.50;2.30;;;;;;;;;;5132729;27;20208;-60
2022/08/27 15:06:44;;;;;;;2.38;2.28;;;;;;;;;;5128779;27;20236;-60
2022/08/27 15:09:31;;;;;;;2.38;2.28;;;;;;;;;;5142409;27;20205;-60
2022/08/27 15:12:18;;;;;;;2.80;2.60;;;;;;;;;;5134956;27;20203;-59
2022/08/27 15:15:07;;;;;;;2.40;2.30;;;;;;;;;;5134368;27;20213;-60
2022/08/27 15:17:54;;;;;;;2.33;2.22;;;;;;;;;;5132100;27;20247;-60
2022/08/27 15:20:43;;;;;;;2.58;2.47;;;;;;;;;;5134724;27;20209;-60
2022/08/27 15:23:30;;;;;;;2.10;2.00;;;;;;;;;;5136135;27;20201;-60
2022/08/27 15:26:17;;;;;;;2.47;2.38;;;;;;;;;;5131865;27;20201;-60
2022/08/27 15:29:04;;;;;;;2.17;2.08;;;;;;;;;;5133333;27;20691;-59
2022/08/27 15:31:52;;;;;;;2.47;2.30;;;;;;;;;;5141298;27;20422;-60
2022/08/27 15:34:38;;;;;;;2.13;2.03;;;;;;;;;;5139008;27;20273;-59
2022/08/27 15:37:29;;;;;;;2.38;2.28;;;;;;;;;;5139864;27;20209;-60
2022/08/27 15:40:18;;;;;;;2.30;2.20;;;;;;;;;;5129300;27;20221;-59
2022/08/27 15:43:06;;;;;;;2.30;2.20;;;;;;;;;;5130507;27;20228;-59
2022/08/27 15:45:53;;;;;;;2.30;2.20;;;;;;;;;;5132987;27;20209;-60
2022/08/27 15:48:40;;;;;;;2.30;2.20;;;;;;;;;;5137660;27;20204;-59
2022/08/27 15:51:30;;;;;;;2.40;2.30;;;;;;;;;;5132495;27;20249;-60
2022/08/27 15:54:19;;;;;;;2.20;2.10;;;;;;;;;;5144205;27;20224;-59
2022/08/27 15:57:07;;;;;;;2.30;2.20;;;;;;;;;;5133099;27;20212;-60
2022/08/27 15:59:54;;;;;;;2.30;2.20;;;;;;;;;;5135946;27;20204;-59
2022/08/27 16:02:42;;;;;;;2.20;2.00;;;;;;;;;;5132069;27;20240;-60
2022/08/27 16:05:32;;;;;;;2.35;2.25;;;;;;;;;;5130083;27;20270;-59
2022/08/27 16:08:19;;;;;;;2.20;2.10;;;;;;;;;;5132660;27;20236;-60
2022/08/27 16:11:07;;;;;;;2.30;2.20;;;;;;;;;;5141955;27;20214;-59
2022/08/27 16:13:54;;;;;;;2.70;2.60;;;;;;;;;;5131659;27;20261;-59
2022/08/27 16:16:44;;;;;;;2.08;1.98;;;;;;;;;;5137496;27;20376;-61
2022/08/27 16:19:31;;;;;;;2.35;2.25;;;;;;;;;;5137252;27;20251;-60
2022/08/27 16:22:18;;;;;;;2.35;2.25;;;;;;;;;;5142228;27;20404;-59
2022/08/27 16:25:07;;;;;;;1.85;1.75;;;;;;;;;;5134740;27;20214;-59
2022/08/27 16:27:59;;;;;;;2.35;2.25;;;;;;;;;;5137976;27;20255;-60
2022/08/27 16:30:47;;;;;;;2.30;2.20;;;;;;;;;;5130832;27;20709;-59
2022/08/27 16:33:34;;;;;;;2.20;2.10;;;;;;;;;;5134576;27;20272;-60
2022/08/27 16:36:21;;;;;;;2.30;2.20;;;;;;;;;;5129822;27;20194;-60
2022/08/27 16:39:08;;;;;;;2.20;2.10;;;;;;;;;;5133775;27;20212;-60
2022/08/27 16:41:55;;;;;;;2.25;2.15;;;;;;;;;;5134679;27;20223;-59
2022/08/27 16:44:44;;;;;;;2.30;2.20;;;;;;;;;;5133204;27;20210;-60
2022/08/27 16:47:31;;;;;;;1.92;1.90;;;;;;;;;;5130043;27;20218;-59
2022/08/27 16:50:35;;;;;;;2.40;2.30;;;;;;;;;;5131554;27;20211;-59
2022/08/27 16:53:22;;;;;;;2.00;1.90;;;;;;;;;;5137554;27;21091;-59
2022/08/27 16:56:09;;;;;;;2.28;2.17;;;;;;;;;;5130576;27;20231;-60
2022/08/27 16:58:56;;;;;;;2.20;2.10;;;;;;;;;;5136641;27;20273;-59
2022/08/27 17:01:47;;;;;;;2.47;2.38;;;;;;;;;;5128604;27;20219;-59
2022/08/27 17:04:34;;;;;;;2.28;2.17;;;;;;;;;;5137380;27;20218;-60
2022/08/27 17:07:23;;;;;;;2.17;2.08;;;;;;;;;;5128839;27;20227;-60
2022/08/27 17:10:12;;;;;;;2.10;2.00;;;;;;;;;;5136561;27;20207;-60
2022/08/27 17:12:59;;;;;;;2.05;1.95;;;;;;;;;;5130104;27;20674;-60